createdAt,value
2023-04-01T00:00:01.035Z,5.88
2023-04-01T00:00:23.349Z,5.88
2023-04-01T00:00:45.216Z,5.87
2023-04-01T00:01:07.515Z,5.86
2023-04-01T00:01:30.730Z,5.86
2023-04-01T00:01:53.028Z,5.86
2023-04-01T00:02:15.833Z,5.86
2023-04-01T00:02:37.973Z,5.86
2023-04-01T00:03:01.374Z,5.85
2023-04-01T00:03:23.706Z,5.85
2023-04-01T00:03:46.077Z,5.87
2023-04-01T00:04:08.157Z,5.88
2023-04-01T00:04:30.175Z,5.90
2023-04-01T00:04:52.320Z,5.91
2023-04-01T00:05:14.098Z,5.94
2023-04-01T00:05:35.980Z,5.95
2023-04-01T00:05:57.876Z,5.97
2023-04-01T00:06:19.927Z,5.98
2023-04-01T00:06:42.058Z,5.99
2023-04-01T00:07:03.764Z,5.99
2023-04-01T00:07:26.134Z,6.00
2023-04-01T00:07:53.749Z,5.99
2023-04-01T00:08:18.611Z,6.00
2023-04-01T00:08:41.824Z,5.99
2023-04-01T00:09:03.704Z,5.99
2023-04-01T00:09:26.726Z,5.99
2023-04-01T00:09:52.590Z,5.99
2023-04-01T00:10:14.899Z,5.97
2023-04-01T00:10:37.083Z,5.97
2023-04-01T00:10:58.966Z,5.97
2023-04-01T00:11:21.469Z,5.96
2023-04-01T00:11:44.991Z,5.96
2023-04-01T00:12:06.877Z,5.95
2023-04-01T00:12:28.871Z,5.95
2023-04-01T00:12:52.186Z,5.95
2023-04-01T00:13:14.182Z,5.94
2023-04-01T00:13:36.375Z,5.94
2023-04-01T00:13:58.154Z,5.94
2023-04-01T00:14:20.387Z,5.93
2023-04-01T00:14:42.233Z,5.93
2023-04-01T00:15:08.621Z,5.92
2023-04-01T00:15:34.018Z,5.92
2023-04-01T00:15:57.583Z,5.92
2023-04-01T00:16:21.894Z,5.92
2023-04-01T00:16:45.483Z,5.91
2023-04-01T00:17:07.337Z,5.91
2023-04-01T00:17:29.156Z,5.90
2023-04-01T00:17:51.024Z,5.89
2023-04-01T00:18:13.024Z,5.89
2023-04-01T00:18:34.848Z,5.89
2023-04-01T00:18:57.000Z,5.88
2023-04-01T00:19:18.883Z,5.87
2023-04-01T00:19:40.780Z,5.87
2023-04-01T00:20:03.279Z,5.87
2023-04-01T00:20:25.158Z,5.87
2023-04-01T00:20:47.127Z,5.86
2023-04-01T00:21:09.035Z,5.86
2023-04-01T00:21:30.828Z,5.85
2023-04-01T00:21:52.709Z,5.85
2023-04-01T00:22:15.202Z,5.85
2023-04-01T00:22:37.811Z,5.84
2023-04-01T00:23:00.125Z,5.84
2023-04-01T00:23:21.895Z,5.84
2023-04-01T00:23:44.082Z,5.83
2023-04-01T00:24:06.275Z,5.83
2023-04-01T00:24:28.265Z,5.82
2023-04-01T00:24:50.460Z,5.82
2023-04-01T00:25:12.348Z,5.82
2023-04-01T00:25:34.503Z,5.82
2023-04-01T00:25:56.531Z,5.81
2023-04-01T00:26:20.869Z,5.81
2023-04-01T00:26:42.899Z,5.80
2023-04-01T00:27:08.529Z,5.79
2023-04-01T00:27:32.179Z,5.79
2023-04-01T00:27:54.861Z,5.79
2023-04-01T00:28:17.475Z,5.79
2023-04-01T00:28:41.005Z,5.78
2023-04-01T00:29:03.193Z,5.78
2023-04-01T00:29:29.566Z,5.77
2023-04-01T00:29:51.254Z,5.77
2023-04-01T00:30:13.241Z,5.77
2023-04-01T00:30:36.250Z,5.78
2023-04-01T00:30:58.957Z,5.79
2023-04-01T00:31:21.956Z,5.81
2023-04-01T00:31:43.919Z,5.82
2023-04-01T00:32:05.959Z,5.84
2023-04-01T00:32:27.877Z,5.85
2023-04-01T00:32:53.242Z,5.88
2023-04-01T00:33:15.498Z,5.89
2023-04-01T00:33:37.933Z,5.91
2023-04-01T00:33:59.632Z,5.92
2023-04-01T00:34:21.670Z,5.93
2023-04-01T00:34:44.782Z,5.94
2023-04-01T00:35:07.180Z,5.94
2023-04-01T00:35:30.553Z,5.93
2023-04-01T00:35:52.834Z,5.94
2023-04-01T00:36:16.851Z,5.93
2023-04-01T00:36:39.785Z,5.93
2023-04-01T00:37:02.042Z,5.93
2023-04-01T00:37:25.048Z,5.93
2023-04-01T00:37:47.695Z,5.93
2023-04-01T00:38:11.688Z,5.91
2023-04-01T00:38:33.364Z,5.92
2023-04-01T00:38:55.796Z,5.90
2023-04-01T00:39:21.330Z,5.90
2023-04-01T00:39:45.367Z,5.89
2023-04-01T00:40:07.763Z,5.90
2023-04-01T00:40:29.892Z,5.90
2023-04-01T00:40:57.367Z,5.89
2023-04-01T00:41:19.878Z,5.89
2023-04-01T00:41:43.493Z,5.89
2023-04-01T00:42:05.383Z,5.88
2023-04-01T00:42:27.472Z,5.88
2023-04-01T00:42:49.257Z,5.87
2023-04-01T00:43:12.575Z,5.87
2023-04-01T00:43:34.432Z,5.86
2023-04-01T00:44:12.552Z,5.86
2023-04-01T00:44:37.258Z,5.86
2023-04-01T00:44:59.347Z,5.85
2023-04-01T00:45:27.377Z,5.85
2023-04-01T00:45:49.770Z,5.85
2023-04-01T00:46:11.969Z,5.85
2023-04-01T00:46:33.808Z,5.84
2023-04-01T00:46:55.995Z,5.84
2023-04-01T00:47:17.931Z,5.83
2023-04-01T00:47:39.839Z,5.83
2023-04-01T00:48:03.078Z,5.83
2023-04-01T00:48:29.420Z,5.82
2023-04-01T00:48:51.825Z,5.82
2023-04-01T00:49:14.013Z,5.81
2023-04-01T00:49:42.982Z,5.81
2023-04-01T00:50:07.512Z,5.81
2023-04-01T00:50:29.188Z,5.80
2023-04-01T00:50:58.846Z,5.80
2023-04-01T00:51:22.476Z,5.79
2023-04-01T00:51:46.709Z,5.79
2023-04-01T00:52:09.029Z,5.78
2023-04-01T00:52:32.464Z,5.78
2023-04-01T00:52:54.150Z,5.77
2023-04-01T00:53:16.713Z,5.76
2023-04-01T00:53:40.440Z,5.76
2023-04-01T00:54:04.014Z,5.75
2023-04-01T00:54:26.050Z,5.75
2023-04-01T00:54:48.150Z,5.75
2023-04-01T00:55:10.236Z,5.74
2023-04-01T00:55:33.550Z,5.74
2023-04-01T00:56:01.476Z,5.73
2023-04-01T00:56:27.252Z,5.73
2023-04-01T00:56:51.805Z,5.72
2023-04-01T00:57:15.554Z,5.71
2023-04-01T00:57:38.653Z,5.71
2023-04-01T00:58:00.628Z,5.70
2023-04-01T00:58:23.662Z,5.70
2023-04-01T00:58:47.449Z,5.70
2023-04-01T00:59:13.047Z,5.70
2023-04-01T00:59:36.357Z,5.70
2023-04-01T00:59:59.671Z,5.71
2023-04-01T01:00:21.974Z,5.73
2023-04-01T01:00:44.832Z,5.74
2023-04-01T01:01:08.839Z,5.76
2023-04-01T01:01:31.789Z,5.78
2023-04-01T01:01:54.918Z,5.80
2023-04-01T01:02:18.929Z,5.82
2023-04-01T01:02:42.632Z,5.84
2023-04-01T01:03:05.212Z,5.85
2023-04-01T01:03:27.840Z,5.86
2023-04-01T01:03:50.217Z,5.87
2023-04-01T01:04:25.892Z,5.87
2023-04-01T01:04:47.575Z,5.87
2023-04-01T01:05:14.981Z,5.88
2023-04-01T01:05:52.394Z,5.87
2023-04-01T01:06:39.404Z,5.87
2023-04-01T01:07:07.282Z,5.87
2023-04-01T01:07:32.652Z,5.87
2023-04-01T01:08:02.125Z,5.86
2023-04-01T01:08:38.108Z,5.86
2023-04-01T01:09:07.900Z,5.85
2023-04-01T01:09:35.582Z,5.84
2023-04-01T01:10:23.379Z,5.85
2023-04-01T01:10:47.783Z,5.84
2023-04-01T01:11:10.372Z,5.83
2023-04-01T01:11:52.487Z,5.83
2023-04-01T01:12:31.094Z,5.82
2023-04-01T01:13:11.595Z,5.81
2023-04-01T01:13:44.719Z,5.80
2023-04-01T01:14:09.971Z,5.79
2023-04-01T01:14:37.231Z,5.79
2023-04-01T01:15:07.766Z,5.78
2023-04-01T01:15:34.716Z,5.78
2023-04-01T01:15:56.654Z,5.78
2023-04-01T01:16:39.259Z,5.78
2023-04-01T01:17:12.749Z,5.77
2023-04-01T01:17:37.360Z,5.77
2023-04-01T01:18:00.720Z,5.76
2023-04-01T01:18:45.813Z,5.76
2023-04-01T01:19:29.286Z,5.75
2023-04-01T01:19:54.236Z,5.74
2023-04-01T01:20:44.967Z,5.75
2023-04-01T01:21:18.102Z,5.74
2023-04-01T01:21:45.852Z,5.73
2023-04-01T01:22:14.151Z,5.73
2023-04-01T01:22:56.388Z,5.72
2023-04-01T01:23:37.547Z,5.71
2023-04-01T01:24:18.009Z,5.70
2023-04-01T01:24:39.994Z,5.70
2023-04-01T01:25:19.061Z,5.69
2023-04-01T01:25:43.506Z,5.69
2023-04-01T01:26:26.665Z,5.68
2023-04-01T01:27:08.295Z,5.68
2023-04-01T01:27:29.971Z,5.67
2023-04-01T01:27:59.119Z,5.66
2023-04-01T01:28:43.514Z,5.66
2023-04-01T01:29:20.791Z,5.65
2023-04-01T01:30:04.922Z,5.64
2023-04-01T01:30:34.789Z,5.64
2023-04-01T01:31:06.039Z,5.65
2023-04-01T01:31:31.241Z,5.67
2023-04-01T01:31:59.478Z,5.69
2023-04-01T01:32:26.511Z,5.72
2023-04-01T01:32:48.289Z,5.74
2023-04-01T01:33:30.901Z,5.76
2023-04-01T01:34:03.728Z,5.78
2023-04-01T01:34:44.233Z,5.79
2023-04-01T01:35:18.190Z,5.81
2023-04-01T01:35:50.012Z,5.81
2023-04-01T01:36:13.443Z,5.80
2023-04-01T01:36:35.757Z,5.80
2023-04-01T01:37:01.901Z,5.79
2023-04-01T01:37:24.497Z,5.78
2023-04-01T01:37:46.284Z,5.78
2023-04-01T01:38:09.700Z,5.78
2023-04-01T01:38:31.893Z,5.77
2023-04-01T01:38:56.438Z,5.77
2023-04-01T01:39:19.266Z,5.76
2023-04-01T01:39:42.869Z,5.76
2023-04-01T01:40:06.340Z,5.75
2023-04-01T01:40:29.882Z,5.75
2023-04-01T01:40:54.261Z,5.75
2023-04-01T01:41:16.757Z,5.74
2023-04-01T01:41:39.744Z,5.73
2023-04-01T01:42:02.681Z,5.73
2023-04-01T01:42:25.114Z,5.73
2023-04-01T01:42:49.012Z,5.71
2023-04-01T01:43:12.128Z,5.71
2023-04-01T01:43:40.154Z,5.70
2023-04-01T01:44:02.752Z,5.69
2023-04-01T01:44:25.234Z,5.69
2023-04-01T01:44:47.468Z,5.68
2023-04-01T01:45:09.841Z,5.68
2023-04-01T01:45:33.120Z,5.67
2023-04-01T01:45:56.186Z,5.67
2023-04-01T01:46:19.441Z,5.66
2023-04-01T01:46:41.275Z,5.65
2023-04-01T01:47:03.075Z,5.65
2023-04-01T01:47:24.855Z,5.64
2023-04-01T01:47:49.837Z,5.64
2023-04-01T01:48:12.420Z,5.64
2023-04-01T01:48:35.743Z,5.63
2023-04-01T01:48:58.122Z,5.62
2023-04-01T01:49:20.457Z,5.62
2023-04-01T01:49:42.171Z,5.61
2023-04-01T01:50:05.320Z,5.61
2023-04-01T01:50:27.516Z,5.60
2023-04-01T01:50:49.396Z,5.59
2023-04-01T01:51:11.357Z,5.59
2023-04-01T01:51:33.269Z,5.59
2023-04-01T01:51:56.894Z,5.58
2023-04-01T01:52:18.985Z,5.57
2023-04-01T01:52:40.975Z,5.56
2023-04-01T01:53:06.763Z,5.56
2023-04-01T01:53:28.437Z,5.55
2023-04-01T01:53:51.783Z,5.54
2023-04-01T01:54:16.408Z,5.54
2023-04-01T01:54:47.696Z,5.53
2023-04-01T01:55:26.884Z,5.52
2023-04-01T01:55:48.959Z,5.51
2023-04-01T01:56:14.462Z,5.51
2023-04-01T01:56:37.709Z,5.52
2023-04-01T01:57:06.914Z,5.53
2023-04-01T01:57:36.289Z,5.54
2023-04-01T01:58:01.300Z,5.56
2023-04-01T01:58:25.106Z,5.57
2023-04-01T01:58:48.381Z,5.60
2023-04-01T01:59:12.484Z,5.61
2023-04-01T01:59:35.618Z,5.63
2023-04-01T02:00:13.946Z,5.65
2023-04-01T02:00:36.962Z,5.65
2023-04-01T02:01:02.833Z,5.66
2023-04-01T02:01:25.922Z,5.66
2023-04-01T02:01:50.036Z,5.65
2023-04-01T02:02:12.587Z,5.65
2023-04-01T02:02:35.020Z,5.64
2023-04-01T02:02:56.907Z,5.63
2023-04-01T02:03:19.882Z,5.63
2023-04-01T02:03:41.572Z,5.62
2023-04-01T02:04:03.487Z,5.62
2023-04-01T02:04:25.910Z,5.61
2023-04-01T02:04:52.097Z,5.60
2023-04-01T02:05:16.581Z,5.59
2023-04-01T02:05:38.780Z,5.58
2023-04-01T02:06:06.083Z,5.58
2023-04-01T02:06:30.128Z,5.57
2023-04-01T02:07:02.637Z,5.56
2023-04-01T02:07:26.160Z,5.56
2023-04-01T02:07:51.931Z,5.55
2023-04-01T02:08:14.955Z,5.55
2023-04-01T02:08:38.472Z,5.55
2023-04-01T02:09:04.252Z,5.54
2023-04-01T02:09:26.593Z,5.54
2023-04-01T02:09:48.427Z,5.54
2023-04-01T02:10:10.515Z,5.53
2023-04-01T02:10:34.785Z,5.53
2023-04-01T02:11:03.909Z,5.52
2023-04-01T02:11:44.507Z,5.51
2023-04-01T02:12:07.313Z,5.51
2023-04-01T02:12:32.164Z,5.50
2023-04-01T02:12:54.257Z,5.49
2023-04-01T02:13:22.793Z,5.49
2023-04-01T02:13:45.092Z,5.48
2023-04-01T02:14:23.132Z,5.47
2023-04-01T02:14:46.879Z,5.46
2023-04-01T02:15:10.283Z,5.45
2023-04-01T02:15:33.741Z,5.44
2023-04-01T02:15:56.789Z,5.44
2023-04-01T02:16:23.437Z,5.43
2023-04-01T02:16:54.395Z,5.43
2023-04-01T02:17:17.205Z,5.42
2023-04-01T02:17:44.422Z,5.41
2023-04-01T02:18:09.703Z,5.42
2023-04-01T02:18:37.900Z,5.43
2023-04-01T02:19:00.806Z,5.44
2023-04-01T02:19:24.957Z,5.46
2023-04-01T02:19:56.783Z,5.48
2023-04-01T02:20:21.195Z,5.50
2023-04-01T02:20:43.024Z,5.52
2023-04-01T02:21:05.427Z,5.54
2023-04-01T02:21:28.496Z,5.55
2023-04-01T02:21:52.223Z,5.56
2023-04-01T02:22:14.979Z,5.57
2023-04-01T02:22:42.032Z,5.57
2023-04-01T02:23:04.222Z,5.58
2023-04-01T02:23:26.337Z,5.57
2023-04-01T02:23:48.040Z,5.56
2023-04-01T02:24:12.644Z,5.57
2023-04-01T02:24:35.651Z,5.57
2023-04-01T02:25:06.030Z,5.56
2023-04-01T02:25:34.112Z,5.55
2023-04-01T02:25:56.449Z,5.54
2023-04-01T02:26:18.643Z,5.54
2023-04-01T02:26:40.835Z,5.54
2023-04-01T02:27:03.652Z,5.53
2023-04-01T02:27:26.350Z,5.53
2023-04-01T02:27:48.095Z,5.52
2023-04-01T02:28:10.698Z,5.51
2023-04-01T02:28:32.453Z,5.50
2023-04-01T02:28:55.130Z,5.50
2023-04-01T02:29:17.626Z,5.49
2023-04-01T02:29:39.317Z,5.48
2023-04-01T02:30:03.237Z,5.48
2023-04-01T02:30:29.740Z,5.47
2023-04-01T02:30:52.178Z,5.46
2023-04-01T02:31:16.536Z,5.47
2023-04-01T02:31:40.193Z,5.45
2023-04-01T02:32:02.097Z,5.46
2023-04-01T02:32:25.008Z,5.46
2023-04-01T02:32:46.777Z,5.45
2023-04-01T02:33:09.791Z,5.44
2023-04-01T02:33:31.976Z,5.44
2023-04-01T02:33:53.968Z,5.43
2023-04-01T02:34:15.617Z,5.43
2023-04-01T02:34:38.022Z,5.42
2023-04-01T02:35:03.721Z,5.42
2023-04-01T02:35:26.021Z,5.40
2023-04-01T02:35:47.721Z,5.39
2023-04-01T02:36:12.982Z,5.39
2023-04-01T02:36:35.576Z,5.38
2023-04-01T02:37:03.084Z,5.37
2023-04-01T02:37:24.695Z,5.37
2023-04-01T02:37:49.099Z,5.36
2023-04-01T02:38:16.250Z,5.36
2023-04-01T02:38:40.440Z,5.35
2023-04-01T02:39:04.702Z,5.34
2023-04-01T02:39:26.768Z,5.35
2023-04-01T02:39:48.658Z,5.35
2023-04-01T02:40:13.393Z,5.37
2023-04-01T02:41:01.989Z,5.38
2023-04-01T02:41:23.600Z,5.40
2023-04-01T02:41:45.663Z,5.43
2023-04-01T02:42:07.647Z,5.44
2023-04-01T02:42:29.278Z,5.46
2023-04-01T02:42:51.217Z,5.47
2023-04-01T02:43:13.104Z,5.49
2023-04-01T02:43:39.600Z,5.49
2023-04-01T02:44:04.559Z,5.50
2023-04-01T02:44:28.889Z,5.50
2023-04-01T02:44:51.595Z,5.51
2023-04-01T02:45:13.590Z,5.50
2023-04-01T02:45:35.572Z,5.50
2023-04-01T02:45:57.971Z,5.49
2023-04-01T02:46:20.336Z,5.49
2023-04-01T02:46:42.680Z,5.48
2023-04-01T02:47:04.613Z,5.48
2023-04-01T02:47:26.597Z,5.47
2023-04-01T02:47:48.347Z,5.47
2023-04-01T02:48:10.540Z,5.46
2023-04-01T02:48:32.425Z,5.46
2023-04-01T02:48:54.240Z,5.46
2023-04-01T02:49:18.031Z,5.45
2023-04-01T02:49:42.160Z,5.44
2023-04-01T02:50:07.165Z,5.44
2023-04-01T02:50:28.935Z,5.44
2023-04-01T02:50:50.887Z,5.43
2023-04-01T02:51:13.079Z,5.42
2023-04-01T02:51:36.016Z,5.41
2023-04-01T02:51:59.418Z,5.41
2023-04-01T02:52:21.197Z,5.40
2023-04-01T02:52:43.295Z,5.39
2023-04-01T02:53:06.637Z,5.39
2023-04-01T02:53:29.213Z,5.38
2023-04-01T02:53:50.891Z,5.38
2023-04-01T02:54:12.676Z,5.37
2023-04-01T02:54:34.469Z,5.36
2023-04-01T02:54:56.347Z,5.35
2023-04-01T02:55:22.029Z,5.34
2023-04-01T02:55:46.770Z,5.33
2023-04-01T02:56:13.668Z,5.31
2023-04-01T02:56:39.032Z,5.30
2023-04-01T02:57:00.976Z,5.30
2023-04-01T02:57:22.911Z,5.30
2023-04-01T02:57:44.753Z,5.29
2023-04-01T02:58:06.589Z,5.29
2023-04-01T02:58:29.181Z,5.28
2023-04-01T02:58:51.206Z,5.28
2023-04-01T02:59:12.960Z,5.27
2023-04-01T02:59:35.068Z,5.27
2023-04-01T02:59:56.671Z,5.26
2023-04-01T03:00:18.518Z,5.25
2023-04-01T03:00:40.368Z,5.25
2023-04-01T03:01:02.365Z,5.26
2023-04-01T03:01:25.394Z,5.28
2023-04-01T03:01:47.496Z,5.28
2023-04-01T03:02:09.806Z,5.29
2023-04-01T03:02:31.951Z,5.30
2023-04-01T03:02:53.962Z,5.33
2023-04-01T03:03:16.006Z,5.35
2023-04-01T03:03:38.452Z,5.36
2023-04-01T03:04:00.971Z,5.38
2023-04-01T03:04:23.256Z,5.39
2023-04-01T03:04:46.269Z,5.40
2023-04-01T03:05:08.470Z,5.41
2023-04-01T03:05:31.079Z,5.41
2023-04-01T03:05:56.671Z,5.41
2023-04-01T03:06:19.237Z,5.41
2023-04-01T03:06:41.876Z,5.41
2023-04-01T03:07:03.778Z,5.40
2023-04-01T03:07:26.371Z,5.39
2023-04-01T03:07:48.016Z,5.39
2023-04-01T03:08:10.655Z,5.38
2023-04-01T03:08:32.705Z,5.37
2023-04-01T03:08:54.389Z,5.36
2023-04-01T03:09:16.582Z,5.35
2023-04-01T03:09:38.255Z,5.34
2023-04-01T03:10:00.258Z,5.34
2023-04-01T03:10:21.931Z,5.33
2023-04-01T03:10:43.617Z,5.33
2023-04-01T03:11:06.427Z,5.32
2023-04-01T03:11:31.685Z,5.31
2023-04-01T03:11:55.414Z,5.30
2023-04-01T03:12:17.196Z,5.30
2023-04-01T03:12:42.464Z,5.29
2023-04-01T03:13:05.163Z,5.29
2023-04-01T03:13:27.505Z,5.28
2023-04-01T03:13:50.389Z,5.28
2023-04-01T03:14:12.154Z,5.28
2023-04-01T03:14:35.549Z,5.27
2023-04-01T03:14:57.566Z,5.27
2023-04-01T03:15:33.976Z,5.27
2023-04-01T03:15:56.592Z,5.26
2023-04-01T03:16:18.919Z,5.26
2023-04-01T03:16:40.842Z,5.26
2023-04-01T03:17:02.749Z,5.25
2023-04-01T03:17:24.871Z,5.26
2023-04-01T03:17:47.378Z,5.27
2023-04-01T03:18:09.237Z,5.27
2023-04-01T03:18:35.306Z,5.29
2023-04-01T03:19:02.647Z,5.30
2023-04-01T03:19:27.056Z,5.32
2023-04-01T03:19:49.765Z,5.34
2023-04-01T03:20:11.669Z,5.35
2023-04-01T03:20:35.987Z,5.37
2023-04-01T03:20:57.676Z,5.38
2023-04-01T03:21:20.845Z,5.38
2023-04-01T03:21:42.598Z,5.38
2023-04-01T03:22:04.321Z,5.38
2023-04-01T03:22:26.342Z,5.37
2023-04-01T03:22:47.970Z,5.37
2023-04-01T03:23:09.708Z,5.36
2023-04-01T03:23:31.387Z,5.35
2023-04-01T03:23:53.485Z,5.33
2023-04-01T03:24:15.270Z,5.32
2023-04-01T03:24:38.482Z,5.30
2023-04-01T03:25:03.436Z,5.29
2023-04-01T03:25:25.526Z,5.27
2023-04-01T03:25:47.926Z,5.22
2023-04-01T03:26:10.829Z,5.25
2023-04-01T03:26:34.151Z,5.24
2023-04-01T03:26:56.661Z,5.24
2023-04-01T03:27:18.579Z,5.23
2023-04-01T03:27:40.574Z,5.22
2023-04-01T03:28:02.660Z,5.21
2023-04-01T03:28:24.813Z,5.21
2023-04-01T03:28:46.497Z,5.20
2023-04-01T03:29:08.229Z,5.19
2023-04-01T03:29:30.105Z,5.19
2023-04-01T03:29:51.950Z,5.18
2023-04-01T03:30:16.455Z,5.17
2023-04-01T03:30:45.476Z,5.17
2023-04-01T03:31:09.326Z,5.16
2023-04-01T03:31:35.891Z,5.15
2023-04-01T03:31:59.283Z,5.16
2023-04-01T03:32:21.499Z,5.16
2023-04-01T03:32:43.138Z,5.16
2023-04-01T03:33:05.708Z,5.18
2023-04-01T03:33:28.158Z,5.18
2023-04-01T03:33:49.840Z,5.20
2023-04-01T03:34:12.090Z,5.21
2023-04-01T03:34:33.874Z,5.23
2023-04-01T03:34:55.706Z,5.25
2023-04-01T03:35:17.593Z,5.26
2023-04-01T03:35:40.705Z,5.28
2023-04-01T03:36:03.810Z,5.29
2023-04-01T03:36:26.500Z,5.29
2023-04-01T03:36:49.024Z,5.30
2023-04-01T03:37:16.450Z,5.30
2023-04-01T03:37:43.740Z,5.30
2023-04-01T03:38:05.531Z,5.29
2023-04-01T03:38:27.521Z,5.29
2023-04-01T03:38:49.391Z,5.29
2023-04-01T03:39:13.744Z,5.28
2023-04-01T03:39:36.868Z,5.27
2023-04-01T03:39:58.544Z,5.26
2023-04-01T03:40:20.857Z,5.25
2023-04-01T03:40:43.372Z,5.24
2023-04-01T03:41:05.630Z,5.22
2023-04-01T03:41:28.174Z,5.22
2023-04-01T03:41:50.119Z,5.20
2023-04-01T03:42:12.314Z,5.19
2023-04-01T03:42:34.252Z,5.18
2023-04-01T03:42:58.071Z,5.17
2023-04-01T03:43:23.053Z,5.16
2023-04-01T03:43:45.096Z,5.16
2023-04-01T03:44:07.176Z,5.15
2023-04-01T03:44:33.351Z,5.14
2023-04-01T03:44:55.338Z,5.14
2023-04-01T03:45:17.944Z,5.12
2023-04-01T03:45:45.075Z,5.11
2023-04-01T03:46:08.074Z,5.10
2023-04-01T03:46:30.282Z,5.10
2023-04-01T03:46:52.653Z,5.10
2023-04-01T03:47:14.273Z,5.10
2023-04-01T03:47:36.325Z,5.10
2023-04-01T03:47:58.711Z,5.11
2023-04-01T03:48:20.830Z,5.13
2023-04-01T03:48:43.012Z,5.15
2023-04-01T03:49:12.157Z,5.16
2023-04-01T03:49:39.254Z,5.19
2023-04-01T03:50:02.796Z,5.21
2023-04-01T03:50:25.073Z,5.22
2023-04-01T03:50:46.891Z,5.23
2023-04-01T03:51:09.061Z,5.24
2023-04-01T03:51:32.695Z,5.25
2023-04-01T03:51:55.853Z,5.26
2023-04-01T03:52:17.919Z,5.26
2023-04-01T03:52:40.807Z,5.26
2023-04-01T03:53:02.677Z,5.25
2023-04-01T03:53:25.282Z,5.25
2023-04-01T03:53:46.969Z,5.25
2023-04-01T03:54:09.568Z,5.25
2023-04-01T03:54:32.577Z,5.24
2023-04-01T03:54:55.501Z,5.23
2023-04-01T03:55:20.136Z,5.23
2023-04-01T03:55:47.240Z,5.23
2023-04-01T03:56:10.146Z,5.22
2023-04-01T03:56:33.929Z,5.21
2023-04-01T03:56:58.413Z,5.20
2023-04-01T03:57:20.183Z,5.20
2023-04-01T03:57:43.738Z,5.20
2023-04-01T03:58:12.162Z,5.19
2023-04-01T03:58:35.481Z,5.18
2023-04-01T03:58:57.982Z,5.17
2023-04-01T03:59:20.078Z,5.17
2023-04-01T03:59:42.628Z,5.16
2023-04-01T04:00:04.858Z,5.15
2023-04-01T04:00:39.231Z,5.15
2023-04-01T04:01:17.818Z,5.14
2023-04-01T04:01:41.344Z,5.13
2023-04-01T04:02:04.405Z,5.13
2023-04-01T04:02:27.002Z,5.14
2023-04-01T04:02:49.122Z,5.15
2023-04-01T04:03:15.329Z,5.16
2023-04-01T04:03:37.900Z,5.18
2023-04-01T04:04:06.866Z,5.20
2023-04-01T04:04:28.692Z,5.21
2023-04-01T04:04:50.728Z,5.23
2023-04-01T04:05:13.891Z,5.25
2023-04-01T04:05:36.054Z,5.26
2023-04-01T04:05:58.373Z,5.27
2023-04-01T04:06:22.890Z,5.28
2023-04-01T04:06:44.662Z,5.28
2023-04-01T04:07:06.445Z,5.29
2023-04-01T04:07:40.505Z,5.28
2023-04-01T04:08:03.464Z,5.28
2023-04-01T04:08:25.407Z,5.27
2023-04-01T04:08:47.146Z,5.26
2023-04-01T04:09:09.042Z,5.25
2023-04-01T04:09:31.101Z,5.24
2023-04-01T04:09:53.215Z,5.23
2023-04-01T04:10:15.350Z,5.22
2023-04-01T04:10:37.082Z,5.21
2023-04-01T04:11:01.881Z,5.20
2023-04-01T04:11:29.059Z,5.18
2023-04-01T04:11:53.143Z,5.18
2023-04-01T04:12:15.110Z,5.16
2023-04-01T04:12:38.176Z,5.16
2023-04-01T04:13:00.525Z,5.15
2023-04-01T04:13:24.040Z,5.14
2023-04-01T04:13:52.623Z,5.13
2023-04-01T04:14:14.347Z,5.12
2023-04-01T04:14:37.272Z,5.11
2023-04-01T04:15:00.182Z,5.11
2023-04-01T04:15:22.198Z,5.10
2023-04-01T04:15:44.207Z,5.10
2023-04-01T04:16:06.585Z,5.11
2023-04-01T04:16:29.355Z,5.12
2023-04-01T04:16:54.322Z,5.13
2023-04-01T04:17:16.718Z,5.14
2023-04-01T04:17:38.966Z,5.16
2023-04-01T04:18:03.114Z,5.17
2023-04-01T04:18:30.258Z,5.19
2023-04-01T04:18:52.695Z,5.20
2023-04-01T04:19:15.460Z,5.21
2023-04-01T04:19:38.066Z,5.22
2023-04-01T04:20:00.189Z,5.23
2023-04-01T04:20:22.243Z,5.23
2023-04-01T04:20:46.211Z,5.22
2023-04-01T04:21:07.861Z,5.23
2023-04-01T04:21:30.051Z,5.22
2023-04-01T04:21:52.383Z,5.22
2023-04-01T04:22:14.237Z,5.21
2023-04-01T04:22:36.122Z,5.21
2023-04-01T04:22:58.837Z,5.21
2023-04-01T04:23:20.663Z,5.20
2023-04-01T04:23:42.707Z,5.19
2023-04-01T04:24:07.864Z,5.19
2023-04-01T04:24:48.465Z,5.17
2023-04-01T04:25:10.577Z,5.16
2023-04-01T04:25:32.875Z,5.16
2023-04-01T04:25:59.143Z,5.15
2023-04-01T04:26:22.516Z,5.15
2023-04-01T04:26:49.762Z,5.14
2023-04-01T04:27:11.650Z,5.13
2023-04-01T04:27:39.614Z,5.12
2023-04-01T04:28:03.299Z,5.11
2023-04-01T04:28:25.700Z,5.11
2023-04-01T04:28:48.713Z,5.12
2023-04-01T04:29:10.697Z,5.13
2023-04-01T04:29:33.606Z,5.15
2023-04-01T04:30:01.290Z,5.16
2023-04-01T04:30:23.414Z,5.18
2023-04-01T04:30:45.507Z,5.19
2023-04-01T04:31:08.153Z,5.20
2023-04-01T04:31:33.095Z,5.21
2023-04-01T04:31:55.365Z,5.23
2023-04-01T04:32:17.487Z,5.24
2023-04-01T04:32:41.208Z,5.25
2023-04-01T04:33:03.634Z,5.25
2023-04-01T04:33:25.591Z,5.25
2023-04-01T04:33:47.555Z,5.24
2023-04-01T04:34:11.094Z,5.24
2023-04-01T04:34:33.121Z,5.23
2023-04-01T04:34:55.157Z,5.23
2023-04-01T04:35:18.427Z,5.22
2023-04-01T04:35:42.211Z,5.21
2023-04-01T04:36:06.222Z,5.21
2023-04-01T04:36:28.841Z,5.20
2023-04-01T04:36:54.312Z,5.19
2023-04-01T04:37:17.322Z,5.18
2023-04-01T04:37:40.636Z,5.17
2023-04-01T04:38:03.036Z,5.17
2023-04-01T04:38:25.638Z,5.16
2023-04-01T04:38:47.875Z,5.16
2023-04-01T04:39:09.922Z,5.15
2023-04-01T04:39:35.637Z,5.15
2023-04-01T04:39:58.022Z,5.14
2023-04-01T04:40:19.777Z,5.13
2023-04-01T04:40:41.969Z,5.12
2023-04-01T04:41:04.072Z,5.12
2023-04-01T04:41:27.481Z,5.11
2023-04-01T04:41:49.368Z,5.12
2023-04-01T04:42:11.826Z,5.13
2023-04-01T04:42:33.859Z,5.14
2023-04-01T04:42:59.741Z,5.15
2023-04-01T04:43:21.514Z,5.17
2023-04-01T04:43:48.360Z,5.19
2023-04-01T04:44:10.306Z,5.20
2023-04-01T04:44:33.964Z,5.22
2023-04-01T04:44:56.634Z,5.24
2023-04-01T04:45:18.741Z,5.26
2023-04-01T04:45:47.981Z,5.26
2023-04-01T04:46:10.166Z,5.27
2023-04-01T04:46:32.506Z,5.27
2023-04-01T04:47:03.208Z,5.27
2023-04-01T04:47:29.162Z,5.26
2023-04-01T04:47:51.269Z,5.26
2023-04-01T04:48:16.616Z,5.24
2023-04-01T04:48:42.050Z,5.24
2023-04-01T04:49:04.649Z,5.23
2023-04-01T04:49:26.374Z,5.22
2023-04-01T04:49:48.042Z,5.21
2023-04-01T04:50:10.305Z,5.20
2023-04-01T04:50:33.115Z,5.19
2023-04-01T04:50:55.107Z,5.18
2023-04-01T04:51:19.964Z,5.18
2023-04-01T04:51:41.886Z,5.17
2023-04-01T04:52:03.734Z,5.16
2023-04-01T04:52:25.720Z,5.16
2023-04-01T04:52:47.503Z,5.15
2023-04-01T04:53:12.770Z,5.14
2023-04-01T04:53:35.164Z,5.14
2023-04-01T04:54:00.454Z,5.13
2023-04-01T04:54:33.872Z,5.12
2023-04-01T04:54:58.262Z,5.12
2023-04-01T04:55:20.721Z,5.12
2023-04-01T04:55:48.324Z,5.12
2023-04-01T04:56:19.313Z,5.14
2023-04-01T04:56:53.382Z,5.16
2023-04-01T04:57:16.164Z,5.18
2023-04-01T04:57:43.487Z,5.19
2023-04-01T04:58:05.377Z,5.21
2023-04-01T04:58:27.160Z,5.23
2023-04-01T04:58:49.301Z,5.23
2023-04-01T04:59:13.436Z,5.25
2023-04-01T05:00:01.050Z,5.25
2023-04-01T05:00:43.293Z,5.26
2023-04-01T05:01:16.764Z,5.25
2023-04-01T05:01:39.554Z,5.24
2023-04-01T05:02:01.619Z,5.24
2023-04-01T05:02:24.118Z,5.23
2023-04-01T05:02:46.397Z,5.22
2023-04-01T05:03:08.569Z,5.21
2023-04-01T05:03:30.714Z,5.20
2023-04-01T05:03:53.116Z,5.20
2023-04-01T05:04:15.093Z,5.19
2023-04-01T05:04:37.033Z,5.18
2023-04-01T05:04:59.488Z,5.17
2023-04-01T05:05:21.198Z,5.17
2023-04-01T05:05:48.574Z,5.16
2023-04-01T05:06:10.665Z,5.16
2023-04-01T05:06:33.068Z,5.15
2023-04-01T05:06:54.793Z,5.15
2023-04-01T05:07:16.534Z,5.14
2023-04-01T05:07:42.751Z,5.13
2023-04-01T05:08:05.826Z,5.13
2023-04-01T05:08:27.714Z,5.13
2023-04-01T05:08:51.749Z,5.12
2023-04-01T05:09:15.328Z,5.12
2023-04-01T05:09:38.284Z,5.13
2023-04-01T05:10:00.684Z,5.13
2023-04-01T05:10:22.613Z,5.15
2023-04-01T05:10:45.986Z,5.17
2023-04-01T05:11:13.591Z,5.18
2023-04-01T05:11:36.716Z,5.20
2023-04-01T05:11:58.607Z,5.21
2023-04-01T05:12:21.005Z,5.23
2023-04-01T05:12:51.580Z,5.25
2023-04-01T05:13:16.479Z,5.26
2023-04-01T05:13:39.955Z,5.27
2023-04-01T05:14:01.727Z,5.27
2023-04-01T05:14:26.584Z,5.28
2023-04-01T05:14:57.430Z,5.28
2023-04-01T05:15:20.187Z,5.28
2023-04-01T05:15:42.080Z,5.27
2023-04-01T05:16:08.324Z,5.27
2023-04-01T05:16:31.834Z,5.27
2023-04-01T05:16:55.722Z,5.26
2023-04-01T05:17:18.316Z,5.26
2023-04-01T05:17:40.773Z,5.26
2023-04-01T05:18:03.338Z,5.25
2023-04-01T05:18:25.589Z,5.25
2023-04-01T05:18:47.632Z,5.24
2023-04-01T05:19:09.594Z,5.24
2023-04-01T05:19:31.271Z,5.23
2023-04-01T05:19:53.052Z,5.23
2023-04-01T05:20:15.349Z,5.23
2023-04-01T05:20:37.238Z,5.22
2023-04-01T05:20:59.125Z,5.22
2023-04-01T05:21:21.977Z,5.21
2023-04-01T05:21:44.329Z,5.21
2023-04-01T05:22:06.215Z,5.21